Time;durP1;ratioP1;P1;durP2;ratioP2;P2;SDS_P1;SDS_P2;PMS_P1;PMS_P2;Temp;Humidity;BMP_temperature;BMP_pressure;BME280_temperature;BME280_humidity;BME280_pressure;Samples;Min_cycle;Max_cycle;Signal;HPM_P1;HPM_P2
2022/08/28 00:01:03;;;;;;;12.53;8.53;;;18.20;99.90;;;18.35;100.00;100910.25;4931694;29;21154;-70
2022/08/28 00:03:32;;;;;;;10.67;7.83;;;18.20;99.90;;;18.34;100.00;100912.19;4927443;29;20536;-71
2022/08/28 00:06:02;;;;;;;10.97;8.77;;;18.20;99.90;;;18.30;100.00;100911.00;4911716;29;20853;-71
2022/08/28 00:08:31;;;;;;;11.13;8.80;;;18.20;99.90;;;18.45;100.00;100908.47;4922837;29;20522;-71
2022/08/28 00:11:01;;;;;;;10.53;8.53;;;18.20;99.90;;;18.33;100.00;100913.25;4923374;29;20522;-70
2022/08/28 00:13:31;;;;;;;9.00;7.40;;;18.20;99.90;;;18.33;100.00;100905.03;4923953;29;20447;-70
2022/08/28 00:16:02;;;;;;;13.43;8.00;;;18.20;99.90;;;18.32;100.00;100908.00;4924592;29;20412;-71
2022/08/28 00:18:31;;;;;;;8.93;8.00;;;18.10;99.90;;;18.25;100.00;100908.19;4931929;29;20441;-71
2022/08/28 00:21:01;;;;;;;12.37;9.43;;;18.10;99.90;;;18.29;100.00;100914.84;4920601;29;20496;-71
2022/08/28 00:23:31;;;;;;;14.57;9.20;;;18.10;99.90;;;18.34;100.00;100914.91;4917907;29;20465;-70
2022/08/28 00:27:51;;;;;;;9.87;8.87;;;18.20;99.90;;;18.39;100.00;100914.97;4916895;29;20510;-69
2022/08/28 00:28:59;;;;;;;14.43;9.93;;;18.20;99.90;;;18.37;100.00;100917.13;4916148;29;20420;-71
2022/08/28 00:31:30;;;;;;;11.47;8.40;;;18.10;99.90;;;18.33;100.00;100921.47;4917848;29;20416;-71
2022/08/28 00:34:01;;;;;;;9.63;8.57;;;18.20;99.90;;;18.28;100.00;100915.91;4931902;29;20470;-71
2022/08/28 00:36:30;;;;;;;16.03;9.30;;;18.10;99.90;;;18.27;100.00;100918.91;4916923;29;20473;-71
2022/08/28 00:38:59;;;;;;;14.33;8.87;;;18.10;99.90;;;18.25;100.00;100919.13;4919432;29;20423;-70
2022/08/28 00:41:32;;;;;;;9.63;7.43;;;18.10;99.90;;;18.29;100.00;100920.31;4918764;29;20474;-71
2022/08/28 00:44:13;;;;;;;10.07;7.27;;;18.10;99.90;;;18.20;100.00;100910.88;4922839;29;20480;-71
2022/08/28 00:46:47;;;;;;;11.03;7.60;;;18.00;99.90;;;18.19;100.00;100914.69;4912484;29;20437;-70
2022/08/28 00:49:26;;;;;;;10.03;8.17;;;18.00;99.90;;;18.12;100.00;100912.13;4916925;29;20455;-71
2022/08/28 00:52:07;;;;;;;15.43;8.07;;;18.00;99.90;;;18.19;100.00;100917.44;4921837;29;20408;-71
2022/08/28 00:54:45;;;;;;;8.20;5.73;;;18.00;99.90;;;18.18;99.79;100921.25;4908374;29;20512;-71
2022/08/28 00:57:32;;;;;;;10.77;6.73;;;18.00;99.90;;;18.11;100.00;100917.84;4918406;29;20480;-71
2022/08/28 01:00:01;;;;;;;11.67;7.90;;;18.00;99.90;;;18.20;99.97;100917.16;4914944;29;20451;-70
2022/08/28 01:02:31;;;;;;;7.93;6.37;;;18.00;99.90;;;18.22;99.40;100930.59;4921314;29;21014;-71
2022/08/28 01:05:00;;;;;;;9.30;7.37;;;18.00;99.90;;;18.22;99.01;100914.19;4910627;29;20491;-71
2022/08/28 01:07:29;;;;;;;12.87;7.03;;;18.00;99.90;;;18.27;99.38;100916.16;4916219;29;20453;-70
2022/08/28 01:09:59;;;;;;;8.83;6.90;;;18.00;99.90;;;18.45;99.49;100918.59;4916023;29;20426;-71
2022/08/28 01:12:33;;;;;;;10.37;7.27;;;18.20;99.90;;;18.28;97.89;100918.66;4916334;29;20532;-71
2022/08/28 01:15:11;;;;;;;10.00;6.27;;;18.10;99.90;;;18.13;98.95;100913.78;4920022;29;20780;-71
2022/08/28 01:17:49;;;;;;;10.40;5.40;;;18.00;99.90;;;18.24;98.74;100912.84;4922041;29;20459;-71
2022/08/28 01:20:24;;;;;;;10.80;8.07;;;18.00;99.90;;;18.29;98.91;100917.59;4919017;29;20517;-71
2022/08/28 01:23:07;;;;;;;9.47;6.17;;;18.00;99.90;;;18.25;98.32;100910.91;4910127;29;20514;-71
2022/08/28 01:25:39;;;;;;;13.33;6.37;;;18.00;99.90;;;18.30;98.24;100919.22;4915252;29;20442;-71
2022/08/28 01:28:13;;;;;;;9.43;7.60;;;18.10;99.90;;;18.29;97.41;100917.59;4912552;29;20450;-71
2022/08/28 01:30:46;;;;;;;14.17;7.03;;;18.10;99.90;;;18.27;98.04;100913.41;4916038;29;20442;-71
2022/08/28 01:33:15;;;;;;;11.53;7.33;;;18.10;99.90;;;18.16;98.35;100921.50;4914480;29;20554;-71
2022/08/28 01:35:47;;;;;;;14.33;7.13;;;18.00;99.90;;;18.27;98.50;100914.25;4911415;29;20493;-71
2022/08/28 01:38:17;;;;;;;13.00;9.20;;;18.10;99.90;;;18.18;98.42;100908.38;4914208;29;20512;-71
2022/08/28 01:40:53;;;;;;;13.00;7.93;;;18.00;99.90;;;18.17;99.74;100919.59;4917567;29;20517;-71
2022/08/28 01:43:26;;;;;;;12.63;9.80;;;18.00;99.90;;;18.18;100.00;100921.25;4922728;29;20443;-71
2022/08/28 01:46:00;;;;;;;19.40;8.87;;;18.00;99.90;;;18.20;99.82;100919.09;4913747;29;20425;-71
2022/08/28 01:48:34;;;;;;;12.37;9.67;;;18.00;99.90;;;18.21;100.00;100918.81;4914666;29;20579;-71
2022/08/28 01:51:05;;;;;;;11.83;10.10;;;18.00;99.90;;;18.25;100.00;100924.63;4913830;29;20439;-71
2022/08/28 01:53:34;;;;;;;13.40;8.60;;;18.10;99.90;;;18.24;100.00;100912.03;4902899;29;20983;-71
2022/08/28 01:56:11;;;;;;;12.40;8.73;;;18.10;99.90;;;18.20;100.00;100910.88;4911843;29;20446;-69
2022/08/28 01:58:41;;;;;;;10.70;9.63;;;18.10;99.90;;;18.16;100.00;100913.28;4916921;29;20444;-71
2022/08/28 02:01:11;;;;;;;12.63;10.50;;;18.00;99.90;;;18.29;100.00;100920.31;4918900;29;20473;-70
2022/08/28 02:03:41;;;;;;;15.33;11.50;;;18.10;99.90;;;18.29;100.00;100914.00;4911764;29;20432;-70
2022/08/28 02:06:12;;;;;;;11.33;10.10;;;18.10;99.90;;;18.20;100.00;100917.16;4922760;29;20847;-71
2022/08/28 02:08:41;;;;;;;13.43;9.83;;;18.00;99.90;;;18.22;100.00;100915.00;4914453;29;20780;-71
2022/08/28 02:11:12;;;;;;;11.03;9.90;;;18.10;99.90;;;18.20;100.00;100919.09;4917013;29;20437;-71
2022/08/28 02:13:42;;;;;;;17.10;10.97;;;18.00;99.90;;;18.10;100.00;100916.22;4908794;29;20433;-71
2022/08/28 02:16:11;;;;;;;12.63;11.27;;;18.00;99.90;;;18.12;100.00;100909.38;4916631;29;21016;-71
2022/08/28 02:18:40;;;;;;;20.63;11.57;;;18.00;99.90;;;18.25;100.00;100910.91;4908000;29;20426;-71
2022/08/28 02:21:11;;;;;;;11.10;9.70;;;18.00;99.90;;;18.17;100.00;100900.41;4912757;29;20476;-71
2022/08/28 02:23:43;;;;;;;16.60;12.00;;;18.00;99.90;;;18.15;100.00;100916.28;4919286;29;20481;-71
2022/08/28 02:26:16;;;;;;;17.30;11.07;;;18.00;99.90;;;18.13;100.00;100907.47;4912121;29;20933;-71
2022/08/28 02:28:45;;;;;;;18.80;12.30;;;18.00;99.90;;;18.11;100.00;100912.34;4907555;29;20801;-72
2022/08/28 02:31:14;;;;;;;11.70;10.50;;;18.00;99.90;;;18.03;100.00;100915.53;4909846;29;20453;-71
2022/08/28 02:33:46;;;;;;;14.10;10.33;;;17.90;99.90;;;18.24;100.00;100914.75;4909944;29;20465;-71
2022/08/28 02:36:17;;;;;;;16.30;11.17;;;18.00;99.90;;;18.32;100.00;100914.31;4913093;29;21120;-71
2022/08/28 02:38:47;;;;;;;21.33;11.80;;;18.10;99.90;;;18.27;100.00;100927.13;4915002;29;20793;-71
2022/08/28 02:41:18;;;;;;;12.40;10.57;;;18.00;99.90;;;18.07;100.00;100916.69;4912991;29;20446;-71
2022/08/28 02:43:47;;;;;;;14.40;11.60;;;17.90;99.90;;;18.03;100.00;100915.53;4909265;29;20436;-71
2022/08/28 02:46:16;;;;;;;13.47;12.10;;;17.90;99.90;;;18.12;100.00;100919.50;4908107;29;20999;-71
2022/08/28 02:48:45;;;;;;;14.47;13.07;;;17.90;99.90;;;18.04;100.00;100928.16;4911723;29;20940;-71
2022/08/28 02:51:15;;;;;;;15.60;11.23;;;17.90;99.90;;;18.02;100.00;100927.56;4915609;29;21015;-70
2022/08/28 02:53:44;;;;;;;16.53;11.90;;;17.80;99.90;;;18.09;100.00;100918.13;4910092;29;20592;-71
2022/08/28 02:56:13;;;;;;;14.87;12.37;;;17.90;99.90;;;18.15;100.00;100919.03;4911146;29;20449;-71
2022/08/28 02:58:44;;;;;;;15.63;11.03;;;17.90;99.90;;;17.93;100.00;100927.16;4916678;29;20416;-71
2022/08/28 03:01:13;;;;;;;22.73;11.87;;;17.80;99.90;;;17.95;100.00;100935.13;4909186;29;20450;-71
2022/08/28 03:03:45;;;;;;;13.73;9.80;;;17.80;99.90;;;17.94;100.00;100928.81;4911279;29;20499;-71
2022/08/28 03:06:14;;;;;;;13.80;9.50;;;17.80;99.90;;;18.00;100.00;100933.31;4912515;29;20429;-71
2022/08/28 03:08:44;;;;;;;14.97;9.93;;;17.80;99.90;;;17.86;100.00;100932.00;4902409;29;20448;-70
2022/08/28 03:11:13;;;;;;;12.70;9.70;;;17.70;99.90;;;17.98;100.00;100937.34;4903515;29;20432;-71
2022/08/28 03:13:44;;;;;;;11.03;7.90;;;17.70;99.90;;;17.95;98.69;100933.22;4900907;29;20476;-71
2022/08/28 03:16:13;;;;;;;10.93;8.90;;;17.70;99.90;;;17.81;99.16;100935.44;4909146;29;20424;-71
2022/08/28 03:18:43;;;;;;;12.43;9.23;;;17.60;99.90;;;17.72;99.50;100934.19;4905672;29;20525;-72
2022/08/28 03:21:13;;;;;;;14.97;7.10;;;17.60;99.90;;;17.79;99.39;100931.31;4907930;29;20540;-71
2022/08/28 03:23:41;;;;;;;11.37;10.17;;;17.60;99.90;;;17.91;99.39;100939.44;4906216;29;20508;-71
2022/08/28 03:26:13;;;;;;;14.97;8.23;;;17.70;99.90;;;17.78;98.84;100935.97;4906950;29;20428;-72
2022/08/28 03:28:47;;;;;;;8.43;7.53;;;17.60;99.90;;;17.76;98.83;100940.03;4900572;29;20421;-71
2022/08/28 03:31:21;;;;;;;9.30;7.90;;;17.60;99.90;;;18.01;99.70;100934.13;4905566;29;20420;-69
2022/08/28 03:33:52;;;;;;;11.53;6.47;;;17.70;99.90;;;17.79;98.69;100934.88;4902200;29;20863;-70
2022/08/28 03:36:25;;;;;;;12.57;8.57;;;17.60;99.90;;;17.69;99.15;100937.44;4921273;29;20466;-70
2022/08/28 03:39:02;;;;;;;14.20;6.87;;;17.60;99.90;;;17.68;98.96;100943.16;4907575;29;20444;-71
2022/08/28 03:41:33;;;;;;;14.63;9.23;;;17.50;99.90;;;17.53;100.00;100931.91;4916821;29;20490;-70
2022/08/28 03:44:04;;;;;;;17.40;8.97;;;17.40;99.90;;;17.57;99.52;100933.09;4920519;29;20700;-70
2022/08/28 03:46:34;;;;;;;14.00;8.07;;;17.40;99.90;;;17.56;100.00;100936.91;4912305;29;20537;-71
2022/08/28 03:49:05;;;;;;;10.50;7.50;;;17.40;99.90;;;17.58;100.00;100935.56;4927533;29;20630;-71
2022/08/28 03:51:35;;;;;;;15.43;7.67;;;17.40;99.90;;;17.71;100.00;100940.78;4918960;29;20427;-72
2022/08/28 03:54:05;;;;;;;9.73;7.57;;;17.50;99.90;;;17.74;99.26;100940.28;4909289;29;20816;-71
2022/08/28 03:56:34;;;;;;;9.60;7.67;;;17.50;99.90;;;17.64;99.55;100940.09;4918487;29;20423;-70
2022/08/28 03:59:05;;;;;;;11.13;7.43;;;17.50;99.90;;;18.00;99.42;100948.91;4912549;29;20476;-70
2022/08/28 04:01:36;;;;;;;9.73;7.37;;;17.70;99.90;;;17.84;98.33;100947.81;4905915;29;20823;-70
2022/08/28 04:04:06;;;;;;;15.57;8.03;;;17.60;99.90;;;17.67;98.17;100945.06;4913892;29;20488;-70
2022/08/28 04:06:35;;;;;;;11.80;7.40;;;17.50;99.90;;;17.96;96.07;100945.81;4912448;29;20495;-70
2022/08/28 04:09:06;;;;;;;12.73;7.07;;;17.70;99.90;;;17.99;96.72;100949.97;4922510;29;20432;-71
2022/08/28 04:11:41;;;;;;;14.73;7.10;;;17.80;99.90;;;17.78;95.66;100948.81;4912394;29;20908;-71
2022/08/28 04:14:12;;;;;;;10.87;7.70;;;17.70;99.90;;;17.68;96.86;100959.56;4909118;29;20534;-71
2022/08/28 04:16:41;;;;;;;15.10;6.40;;;17.50;99.90;;;17.60;96.46;100958.09;4922622;29;20441;-71
2022/08/28 04:19:36;;;;;;;11.17;6.90;;;17.50;99.90;;;17.51;97.31;100951.34;4911985;29;20508;-71
2022/08/28 04:22:07;;;;;;;7.83;5.80;;;17.40;99.90;;;17.46;97.51;100961.34;4907909;29;20525;-70
2022/08/28 04:24:37;;;;;;;7.97;5.47;;;17.30;99.90;;;17.66;97.21;100965.31;4913563;29;20530;-71
2022/08/28 04:27:06;;;;;;;8.20;6.43;;;17.40;99.90;;;17.56;96.60;100962.38;4916254;29;20461;-71
2022/08/28 04:29:36;;;;;;;11.93;6.07;;;17.40;99.90;;;17.79;96.23;100967.72;4919794;29;20415;-72
2022/08/28 04:32:05;;;;;;;11.13;6.00;;;17.60;99.90;;;17.56;96.20;100970.59;4914664;29;20467;-70
2022/08/28 04:34:37;;;;;;;7.40;6.03;;;17.40;99.90;;;17.47;97.21;100971.22;4912152;29;20447;-70
2022/08/28 04:37:06;;;;;;;7.40;5.40;;;17.40;99.90;;;17.38;97.89;100984.44;4916947;29;20785;-71
2022/08/28 04:39:35;;;;;;;7.20;5.50;;;17.30;99.90;;;17.63;96.34;100979.47;4905814;29;20792;-70
2022/08/28 04:42:05;;;;;;;8.60;5.60;;;17.40;99.90;;;17.46;97.13;100985.97;4902615;29;20446;-71
2022/08/28 04:44:36;;;;;;;12.50;6.23;;;17.30;99.90;;;17.45;96.01;100990.59;4907446;29;20508;-71
2022/08/28 04:47:05;;;;;;;10.50;5.90;;;17.30;99.90;;;17.60;95.56;100990.09;4913643;29;20926;-71
2022/08/28 04:49:35;;;;;;;9.93;5.67;;;17.40;99.90;;;17.51;95.95;100995.13;4916550;29;20931;-70
2022/08/28 04:52:05;;;;;;;13.87;6.17;;;17.40;99.90;;;17.47;95.08;100987.63;4911183;29;20438;-71
2022/08/28 04:54:35;;;;;;;7.07;4.77;;;17.30;99.90;;;17.66;95.92;100987.22;4914057;29;20993;-71
2022/08/28 04:57:04;;;;;;;10.00;5.37;;;17.40;99.90;;;17.84;93.05;100993.53;4924769;29;20933;-70
2022/08/28 04:59:36;;;;;;;6.47;4.83;;;17.60;99.90;;;17.79;92.46;100997.84;4924445;29;20451;-71
2022/08/28 05:02:05;;;;;;;7.60;5.23;;;17.60;99.90;;;17.64;92.18;100997.56;4916182;29;20453;-71
2022/08/28 05:04:35;;;;;;;14.30;5.07;;;17.50;99.90;;;17.65;94.24;100985.56;4916283;29;20542;-72
2022/08/28 05:07:04;;;;;;;7.43;5.00;;;17.50;99.90;;;17.58;93.13;100995.78;4932154;29;20479;-72
2022/08/28 05:09:33;;;;;;;9.77;5.00;;;17.40;99.90;;;17.63;94.15;100997.81;4917108;29;20829;-71
2022/08/28 05:12:04;;;;;;;7.50;4.53;;;17.40;99.90;;;17.53;92.11;100992.94;4908827;29;20432;-70
2022/08/28 05:14:36;;;;;;;7.80;4.60;;;17.40;99.90;;;17.30;92.34;100993.88;4909166;29;20446;-71
2022/08/28 05:17:06;;;;;;;8.50;4.13;;;17.20;99.90;;;17.24;93.02;100994.03;4921639;29;20440;-73
2022/08/28 05:19:35;;;;;;;4.50;3.60;;;17.10;99.90;;;17.47;92.27;100996.69;4913405;29;20746;-70
2022/08/28 05:22:04;;;;;;;10.33;3.93;;;17.20;99.90;;;17.23;92.00;101001.38;4911525;29;20424;-72
2022/08/28 05:24:33;;;;;;;5.80;4.83;;;17.10;99.90;;;17.00;93.06;101003.38;4917044;29;20485;-71
2022/08/28 05:27:05;;;;;;;9.83;3.83;;;16.90;99.90;;;17.09;93.23;100999.22;4922664;29;20451;-71
2022/08/28 05:29:36;;;;;;;11.87;4.53;;;16.90;99.90;;;17.02;93.62;101014.91;4913564;29;20437;-71
2022/08/28 05:32:06;;;;;;;15.30;5.80;;;16.90;99.90;;;17.01;93.77;101010.50;4905937;29;20413;-71
2022/08/28 05:34:35;;;;;;;7.83;4.17;;;16.80;99.90;;;17.05;93.44;101011.69;4915501;29;20776;-71
2022/08/28 05:37:07;;;;;;;14.23;4.87;;;16.80;99.90;;;17.11;92.73;101021.66;4915995;29;20441;-72
2022/08/28 05:39:36;;;;;;;10.83;4.20;;;16.90;99.90;;;16.86;93.77;101020.03;4912435;29;20427;-72
2022/08/28 05:42:06;;;;;;;4.90;4.40;;;16.80;99.90;;;16.90;93.40;101015.75;4925172;29;20429;-71
2022/08/28 05:44:36;;;;;;;9.20;4.73;;;16.70;99.90;;;17.00;93.58;101014.31;4914841;29;20994;-71
2022/08/28 05:47:06;;;;;;;11.77;4.70;;;16.80;99.90;;;17.06;93.22;101018.81;4908153;29;20908;-72
2022/08/28 05:49:35;;;;;;;13.20;4.00;;;16.90;99.90;;;17.10;92.74;101020.00;4908612;29;20995;-73
2022/08/28 05:52:04;;;;;;;3.97;3.57;;;16.90;99.90;;;17.37;90.75;101018.38;4915248;29;20424;-71
2022/08/28 05:54:33;;;;;;;7.63;3.70;;;17.10;99.90;;;17.30;90.52;101014.94;4906227;29;20482;-71
2022/08/28 05:57:04;;;;;;;9.70;4.10;;;17.00;99.90;;;17.37;90.11;101024.69;4917572;29;20530;-71
2022/08/28 05:59:33;;;;;;;9.00;5.30;;;17.10;99.90;;;17.01;91.32;101018.69;4904121;29;20427;-71
2022/08/28 06:02:06;;;;;;;8.37;3.70;;;16.90;99.90;;;17.08;91.27;101025.72;4914526;29;20532;-71
2022/08/28 06:04:39;;;;;;;17.03;5.00;;;16.90;99.90;;;16.94;90.19;101025.13;4917300;29;20463;-71
2022/08/28 06:07:10;;;;;;;10.70;5.50;;;16.80;99.90;;;16.88;90.54;101028.00;4905587;29;20458;-71
2022/08/28 06:09:40;;;;;;;9.23;4.63;;;16.80;99.90;;;16.77;91.75;101026.97;4906007;29;20425;-71
2022/08/28 06:12:10;;;;;;;8.60;5.53;;;16.60;99.90;;;16.56;91.67;101023.97;4908530;29;20460;-71
2022/08/28 06:14:41;;;;;;;6.83;4.77;;;16.50;99.90;;;16.92;90.13;101027.28;4907101;29;20477;-73
2022/08/28 06:17:11;;;;;;;11.60;5.43;;;16.60;99.90;;;16.67;90.63;101026.72;4913864;29;20784;-72
2022/08/28 06:19:40;;;;;;;9.67;6.53;;;16.50;99.90;;;16.67;91.78;101021.25;4913075;29;20412;-71
2022/08/28 06:22:13;;;;;;;11.40;4.60;;;16.40;99.90;;;17.00;90.13;101030.72;4914188;29;20478;-71
2022/08/28 06:24:42;;;;;;;9.33;4.50;;;16.70;99.90;;;16.87;89.91;101026.34;4909770;29;21100;-71
2022/08/28 06:27:11;;;;;;;8.73;5.27;;;16.60;99.90;;;16.76;89.31;101030.75;4913488;29;20457;-72
2022/08/28 06:29:40;;;;;;;14.17;6.00;;;16.60;99.90;;;16.49;91.33;101026.81;4917915;29;20789;-71
2022/08/28 06:32:12;;;;;;;10.90;5.07;;;16.40;99.90;;;16.69;91.68;101034.69;4916925;29;20427;-71
2022/08/28 06:34:41;;;;;;;14.57;5.93;;;16.50;99.90;;;16.64;90.77;101043.59;4905664;29;20452;-71
2022/08/28 06:37:10;;;;;;;14.00;5.67;;;16.50;99.90;;;16.63;90.98;101038.38;4912725;29;20423;-71
2022/08/28 06:39:39;;;;;;;9.00;5.13;;;16.40;99.90;;;17.20;89.29;101047.53;4911378;29;21007;-72
2022/08/28 06:42:09;;;;;;;9.83;4.80;;;16.70;99.90;;;17.24;88.23;101045.97;4904356;29;20481;-72
2022/08/28 06:44:39;;;;;;;12.37;6.57;;;16.80;99.90;;;17.15;88.34;101045.53;4908880;29;20890;-71
2022/08/28 06:47:09;;;;;;;10.87;5.20;;;16.80;99.90;;;17.66;85.51;101047.44;4911622;29;20922;-73
2022/08/28 06:49:40;;;;;;;11.13;5.20;;;17.20;99.90;;;17.44;84.97;101048.28;4915164;29;20791;-72
2022/08/28 06:52:09;;;;;;;11.30;6.33;;;17.20;99.90;;;17.08;86.56;101054.97;4910547;29;20419;-72
2022/08/28 06:54:38;;;;;;;8.73;5.27;;;17.00;99.90;;;17.15;87.92;101055.63;4912426;29;20515;-71
2022/08/28 06:57:13;;;;;;;16.80;6.30;;;17.00;99.90;;;17.66;85.59;101058.38;4907886;29;20497;-70
2022/08/28 06:59:42;;;;;;;11.63;5.63;;;17.20;99.90;;;17.73;83.91;101075.44;4905379;29;20428;-72
2022/08/28 07:02:11;;;;;;;7.17;4.93;;;17.40;99.90;;;17.32;85.52;101072.97;4909846;29;20439;-72
2022/08/28 07:04:42;;;;;;;9.03;5.60;;;17.20;99.90;;;17.34;85.89;101065.34;4914550;29;20749;-72
2022/08/28 07:07:11;;;;;;;9.13;6.10;;;17.10;99.90;;;17.63;84.28;101068.94;4922584;29;20457;-72
2022/08/28 07:09:59;;;;;;;9.20;5.37;;;17.30;99.90;;;17.33;85.83;101075.44;4907507;29;20438;-72
2022/08/28 07:12:28;;;;;;;12.23;6.33;;;17.10;99.90;;;17.14;86.20;101073.94;4910681;29;20531;-72
2022/08/28 07:14:58;;;;;;;14.53;6.20;;;17.00;99.90;;;17.38;85.58;101075.56;4919846;29;20432;-73
2022/08/28 07:17:27;;;;;;;9.37;4.70;;;17.10;99.90;;;17.49;84.99;101081.22;4921902;29;20431;-71
2022/08/28 07:19:58;;;;;;;9.30;6.40;;;17.20;99.90;;;18.16;83.24;101090.47;4918127;29;20450;-72
2022/08/28 07:22:27;;;;;;;12.30;5.60;;;17.60;99.90;;;18.26;80.95;101085.16;4913588;29;20527;-74
2022/08/28 07:24:57;;;;;;;6.77;4.03;;;17.80;99.90;;;18.42;80.90;101089.81;4909950;29;20510;-72
2022/08/28 07:27:26;;;;;;;13.10;5.70;;;18.00;99.90;;;18.48;80.99;101086.09;4917158;29;20545;-72
2022/08/28 07:29:55;;;;;;;7.27;5.20;;;18.10;99.90;;;18.43;79.93;101094.22;4915464;29;20436;-71
2022/08/28 07:32:25;;;;;;;7.93;5.50;;;18.10;44.50;;;18.58;79.64;101091.78;4917764;29;20439;-72
2022/08/28 07:34:55;;;;;;;13.43;6.23;;;18.10;1.00;;;18.58;78.60;101096.41;4912171;29;20470;-74
2022/08/28 07:37:27;;;;;;;9.80;5.00;;;18.20;1.00;;;18.60;78.99;101097.81;4913589;29;20440;-72
2022/08/28 07:39:56;;;;;;;10.60;5.27;;;18.30;1.00;;;18.55;78.65;101114.19;4913325;29;20429;-72
2022/08/28 07:45:12;;;;;;;13.17;5.87;;;18.30;1.00;;;18.47;78.34;101121.97;4911994;29;20460;-72
2022/08/28 07:47:41;;;;;;;8.00;4.73;;;18.20;1.00;;;18.88;78.23;101115.25;4914690;29;20441;-72
2022/08/28 07:50:11;;;;;;;11.47;7.37;;;18.40;1.00;;;18.74;78.45;101117.50;4915942;29;20471;-72
2022/08/28 07:52:41;;;;;;;11.97;5.50;;;18.30;1.00;;;18.43;78.15;101118.91;4914466;29;20728;-72
2022/08/28 07:55:10;;;;;;;10.60;5.57;;;18.30;1.00;;;18.35;79.10;101124.75;4913234;29;20481;-72
2022/08/28 07:57:42;;;;;;;8.03;6.23;;;18.10;1.00;;;18.32;79.08;101114.31;4920545;29;20472;-73
2022/08/28 08:00:12;;;;;;;12.83;6.20;;;18.10;1.00;;;18.60;78.12;101119.75;4921245;29;20418;-72
2022/08/28 08:02:42;;;;;;;9.50;5.23;;;18.20;1.00;;;17.96;80.00;101115.56;4917582;29;20418;-71
2022/08/28 08:05:13;;;;;;;8.47;4.80;;;17.90;1.00;;;18.31;79.50;101120.03;4923298;29;20532;-71
2022/08/28 08:07:43;;;;;;;8.30;4.23;;;18.00;1.00;;;18.33;79.30;101124.19;4914212;29;20505;-71
2022/08/28 08:10:15;;;;;;;9.50;5.00;;;18.10;1.00;;;18.29;79.48;101128.50;4917226;29;21054;-72
2022/08/28 08:12:48;;;;;;;9.40;5.20;;;18.00;1.00;;;18.50;79.13;101133.25;4918047;29;20504;-72
2022/08/28 08:15:20;;;;;;;11.30;5.80;;;18.20;1.00;;;18.51;78.22;101126.69;4916713;29;20436;-72
2022/08/28 08:17:50;;;;;;;8.33;5.70;;;18.20;1.00;;;18.12;79.94;101135.88;4916874;29;20420;-70
2022/08/28 08:20:19;;;;;;;8.57;6.00;;;17.90;1.00;;;18.07;80.51;101130.28;4911687;29;20517;-72
2022/08/28 08:22:50;;;;;;;9.27;5.63;;;17.90;1.00;;;17.93;80.59;101135.25;4912813;29;20450;-73
2022/08/28 08:25:19;;;;;;;10.50;5.73;;;17.80;1.00;;;17.78;81.47;101143.97;4916311;29;20477;-71
2022/08/28 08:27:50;;;;;;;9.97;5.17;;;17.60;1.00;;;17.76;82.64;101140.69;4911142;29;20432;-71
2022/08/28 08:30:19;;;;;;;13.17;6.43;;;17.50;45.40;;;18.39;78.46;101138.81;4907708;29;20435;-72
2022/08/28 08:32:48;;;;;;;12.43;6.67;;;18.00;1.00;;;17.92;80.83;101146.44;4913722;29;20457;-71
2022/08/28 08:35:17;;;;;;;11.40;6.63;;;17.80;1.00;;;17.85;81.37;101148.50;4923198;29;20455;-72
2022/08/28 08:37:46;;;;;;;13.50;5.53;;;17.70;1.00;;;17.98;81.17;101143.56;4906554;29;20914;-73
2022/08/28 08:40:19;;;;;;;9.87;5.60;;;17.70;1.00;;;18.33;79.58;101143.38;4910555;29;20733;-73
2022/08/28 08:42:54;;;;;;;11.00;6.50;;;18.00;1.00;;;18.19;79.59;101147.50;4909961;29;20554;-72
2022/08/28 08:45:25;;;;;;;10.23;6.67;;;17.90;1.00;;;18.29;79.87;101147.69;4918557;29;21133;-71
2022/08/28 08:47:56;;;;;;;16.70;6.57;;;17.90;1.00;;;18.42;79.41;101154.75;4916323;29;20990;-71
2022/08/28 08:50:29;;;;;;;12.07;6.60;;;18.00;1.00;;;18.24;79.94;101153.06;4909450;29;20514;-71
2022/08/28 08:53:23;;;;;;;13.40;6.20;;;18.00;1.00;;;18.37;79.69;101152.75;4915145;29;20853;-72
2022/08/28 08:55:57;;;;;;;10.30;7.37;;;18.00;1.00;;;17.87;81.77;101160.84;4910637;29;20978;-72
2022/08/28 08:58:31;;;;;;;10.23;6.23;;;17.70;3.30;;;18.22;81.37;101160.69;4911875;29;20443;-73
2022/08/28 09:01:09;;;;;;;10.60;6.90;;;17.90;99.90;;;18.22;80.04;101160.69;4904817;29;20869;-71
2022/08/28 09:03:55;;;;;;;22.77;8.93;;;17.90;1.00;;;18.29;79.98;101166.88;4915079;29;20567;-72
2022/08/28 09:06:40;;;;;;;12.07;6.50;;;18.00;1.00;;;18.16;80.46;101156.19;4908122;29;20549;-72
2022/08/28 09:09:20;;;;;;;16.97;6.33;;;17.90;1.00;;;17.93;81.56;101165.34;4913543;29;20678;-73
2022/08/28 09:11:56;;;;;;;11.27;8.00;;;17.80;1.00;;;17.79;82.17;101155.78;4911676;29;20439;-72
2022/08/28 09:14:38;;;;;;;10.30;6.83;;;17.60;1.00;;;18.04;82.93;101169.13;4911612;29;20822;-72
2022/08/28 09:17:10;;;;;;;8.07;6.23;;;17.60;47.30;;;18.36;80.36;101164.78;4909488;29;20477;-71
2022/08/28 09:19:39;;;;;;;10.80;7.73;;;17.90;99.90;;;18.36;80.38;101164.78;4910254;29;20947;-72
2022/08/28 09:22:09;;;;;;;7.40;6.10;;;18.00;1.00;;;18.41;79.89;101167.63;4915568;29;20446;-72
2022/08/28 09:24:41;;;;;;;14.23;7.80;;;18.10;1.00;;;18.13;80.01;101168.50;4905983;29;20550;-72
2022/08/28 09:27:26;;;;;;;17.60;8.60;;;18.00;1.00;;;17.86;82.19;101166.59;4921801;29;20427;-71
2022/08/28 09:30:00;;;;;;;15.30;7.27;;;17.80;1.00;;;18.00;81.27;101170.69;4905468;29;20468;-72
2022/08/28 09:32:40;;;;;;;15.20;7.53;;;17.80;1.00;;;18.00;81.18;101167.97;4907889;29;20456;-72
2022/08/28 09:35:26;;;;;;;8.20;6.43;;;17.70;1.00;;;17.93;81.18;101172.75;4903797;29;20437;-71
2022/08/28 09:37:57;;;;;;;8.73;6.33;;;17.70;1.00;;;17.80;82.07;101179.34;4909800;29;20876;-73
2022/08/28 09:43:25;;;;;;;10.13;7.30;;;17.60;1.00;;;17.93;81.46;101170.00;4901742;29;20469;-72
2022/08/28 09:43:26;;;;;;;13.83;8.00;;;17.70;46.40;;;18.06;81.23;101166.97;4902243;29;20469;-72
2022/08/28 09:46:01;;;;;;;13.00;7.83;;;17.70;16.20;;;18.18;80.32;101171.31;4911647;29;20508;-72
2022/08/28 09:48:37;;;;;;;17.10;9.47;;;17.90;1.00;;;18.12;80.32;101166.00;4914322;29;20468;-71
2022/08/28 09:51:11;;;;;;;10.47;6.73;;;17.90;1.00;;;18.13;80.19;101178.59;4911998;29;20460;-73
2022/08/28 09:53:59;;;;;;;8.43;7.50;;;17.90;1.00;;;18.24;79.70;101169.50;4917791;29;20824;-72
2022/08/28 09:56:33;;;;;;;13.33;7.00;;;18.00;1.00;;;18.35;80.42;101179.56;4917646;29;20425;-72
2022/08/28 09:59:08;;;;;;;14.37;7.07;;;18.00;8.20;;;18.60;78.95;101188.25;4911980;29;20927;-71
2022/08/28 10:01:58;;;;;;;16.83;7.30;;;18.20;1.00;;;18.61;78.35;101184.44;4911561;29;21043;-72
2022/08/28 10:04:46;;;;;;;11.30;6.93;;;18.30;1.00;;;18.62;78.38;101183.38;4908775;29;20445;-72
2022/08/28 10:07:30;;;;;;;14.20;6.73;;;18.40;1.00;;;18.50;79.36;101189.97;4911224;29;20455;-72
2022/08/28 10:10:27;;;;;;;19.57;7.13;;;18.20;1.00;;;18.88;77.99;101198.31;4913287;29;20748;-72
2022/08/28 10:13:09;;;;;;;11.67;6.67;;;18.40;1.00;;;18.98;77.26;101192.16;4909086;29;20482;-73
2022/08/28 10:16:10;;;;;;;13.30;7.43;;;18.50;1.00;;;18.72;77.94;101203.81;4913067;29;20472;-73
2022/08/28 10:18:51;;;;;;;8.63;7.53;;;18.50;1.00;;;18.49;79.25;101200.09;4915356;29;20533;-71
2022/08/28 10:21:32;;;;;;;7.90;6.70;;;18.30;1.00;;;18.61;78.33;101202.81;4919511;29;20635;-72
2022/08/28 10:24:32;;;;;;;11.33;8.50;;;18.30;1.00;;;18.69;79.12;101198.84;4909592;29;20468;-72
2022/08/28 10:27:16;;;;;;;11.30;9.10;;;18.40;1.00;;;18.19;80.37;101205.03;4913271;29;20951;-72
2022/08/28 10:29:58;;;;;;;14.57;8.40;;;18.20;1.00;;;18.41;80.41;101200.50;4898613;29;20454;-73
2022/08/28 10:33:05;;;;;;;17.70;8.20;;;18.20;1.00;;;18.12;81.06;101215.28;4903424;29;20932;-72